createdAt,value
2017-08-16T00:00:26.108Z,98.80
2017-08-16T00:02:55.985Z,98.80
2017-08-16T00:05:27.149Z,98.90
2017-08-16T00:07:58.013Z,98.20
2017-08-16T00:10:31.052Z,97.80
2017-08-16T00:13:02.138Z,98.00
2017-08-16T00:15:35.671Z,97.50
2017-08-16T00:18:06.523Z,97.40
2017-08-16T00:20:37.426Z,97.10
2017-08-16T00:23:08.399Z,97.10
2017-08-16T00:25:39.201Z,96.70
2017-08-16T00:28:08.360Z,96.60
2017-08-16T00:30:37.454Z,96.60
2017-08-16T00:33:08.462Z,96.80
2017-08-16T00:35:39.385Z,97.00
2017-08-16T00:38:10.579Z,96.50
2017-08-16T00:40:40.854Z,96.30
2017-08-16T00:43:11.955Z,96.50
2017-08-16T00:45:44.327Z,96.60
2017-08-16T00:48:16.510Z,96.60
2017-08-16T00:50:47.661Z,96.30
2017-08-16T00:53:16.378Z,96.10
2017-08-16T00:55:47.536Z,96.00
2017-08-16T00:58:16.893Z,95.90
2017-08-16T01:00:48.173Z,96.30
2017-08-16T01:03:18.533Z,96.00
2017-08-16T01:05:51.128Z,95.90
2017-08-16T01:08:26.091Z,96.30
2017-08-16T01:10:59.483Z,96.30
2017-08-16T01:13:29.030Z,96.20
2017-08-16T01:16:02.135Z,95.90
2017-08-16T01:18:33.652Z,96.50
2017-08-16T01:21:03.463Z,96.50
2017-08-16T01:23:33.249Z,96.50
2017-08-16T01:26:05.726Z,96.10
2017-08-16T01:28:35.434Z,95.30
2017-08-16T01:31:07.047Z,94.70
2017-08-16T01:33:37.616Z,94.40
2017-08-16T01:36:06.678Z,94.40
2017-08-16T01:38:38.452Z,94.70
2017-08-16T01:41:09.505Z,94.70
2017-08-16T01:43:40.932Z,95.10
2017-08-16T01:46:11.033Z,94.50
2017-08-16T01:48:41.056Z,94.40
2017-08-16T01:51:10.050Z,95.30
2017-08-16T01:53:39.553Z,95.70
2017-08-16T01:56:10.111Z,95.70
2017-08-16T01:58:38.513Z,95.60
2017-08-16T02:01:07.737Z,95.60
2017-08-16T02:03:39.266Z,95.40
2017-08-16T02:06:10.533Z,95.30
2017-08-16T02:08:41.311Z,94.40
2017-08-16T02:11:11.428Z,94.30
2017-08-16T02:13:41.693Z,94.70
2017-08-16T02:16:14.474Z,94.50
2017-08-16T02:18:46.949Z,94.30
2017-08-16T02:21:18.284Z,94.50
2017-08-16T02:23:48.798Z,94.10
2017-08-16T02:26:21.146Z,94.40
2017-08-16T02:28:50.152Z,94.90
2017-08-16T02:31:19.685Z,95.00
2017-08-16T02:33:50.728Z,95.20
2017-08-16T02:36:22.486Z,95.10
2017-08-16T02:38:55.561Z,95.00
2017-08-16T02:41:27.622Z,95.40
2017-08-16T02:43:56.897Z,95.40
2017-08-16T02:46:29.368Z,94.70
2017-08-16T02:48:58.411Z,94.80
2017-08-16T02:51:29.967Z,94.10
2017-08-16T02:54:02.234Z,94.60
2017-08-16T02:56:33.656Z,95.40
2017-08-16T02:59:06.384Z,95.40
2017-08-16T03:01:37.479Z,95.80
2017-08-16T03:04:06.622Z,95.60
2017-08-16T03:06:39.358Z,94.80
2017-08-16T03:09:08.451Z,94.80
2017-08-16T03:11:38.778Z,95.30
2017-08-16T03:14:09.202Z,95.50
2017-08-16T03:16:38.507Z,95.50
2017-08-16T03:19:10.096Z,95.40
2017-08-16T03:21:38.434Z,95.90
2017-08-16T03:24:07.505Z,95.90
2017-08-16T03:26:37.241Z,94.90
2017-08-16T03:29:07.871Z,94.10
2017-08-16T03:31:37.118Z,93.70
2017-08-16T03:34:10.115Z,94.00
2017-08-16T03:36:41.127Z,93.90
2017-08-16T03:39:09.224Z,93.70
2017-08-16T03:41:40.418Z,93.70
2017-08-16T03:44:09.102Z,93.80
2017-08-16T03:46:40.450Z,93.90
2017-08-16T03:49:08.929Z,93.80
2017-08-16T03:51:38.312Z,93.90
2017-08-16T03:54:06.481Z,94.00
2017-08-16T03:56:35.698Z,93.90
2017-08-16T03:59:04.308Z,94.50
2017-08-16T04:04:07.303Z,94.30
2017-08-16T04:06:39.535Z,94.50
2017-08-16T04:09:12.047Z,94.60
2017-08-16T04:11:44.242Z,95.10
2017-08-16T04:14:17.586Z,95.50
2017-08-16T04:16:50.907Z,95.50
2017-08-16T04:19:21.032Z,95.80
2017-08-16T04:21:50.912Z,96.20
2017-08-16T04:24:23.104Z,96.70
2017-08-16T04:26:55.496Z,97.10
2017-08-16T04:29:29.660Z,97.10
2017-08-16T04:32:00.650Z,97.10
2017-08-16T04:34:31.498Z,97.40
2017-08-16T04:37:03.933Z,97.40
2017-08-16T04:39:35.149Z,97.50
2017-08-16T04:42:07.025Z,97.10
2017-08-16T04:44:37.501Z,97.50
2017-08-16T04:47:15.481Z,97.50
2017-08-16T04:49:45.854Z,97.10
2017-08-16T04:52:16.013Z,97.40
2017-08-16T04:54:46.195Z,97.60
2017-08-16T04:57:17.842Z,97.30
2017-08-16T04:59:50.527Z,96.90
2017-08-16T05:02:23.345Z,97.60
2017-08-16T05:04:54.571Z,97.60
2017-08-16T05:07:29.344Z,96.80
2017-08-16T05:10:03.620Z,96.30
2017-08-16T05:12:35.512Z,95.90
2017-08-16T05:15:05.293Z,95.50
2017-08-16T05:17:34.993Z,95.90
2017-08-16T05:20:03.614Z,96.10
2017-08-16T05:22:44.439Z,96.30
2017-08-16T05:25:13.556Z,96.30
2017-08-16T05:27:42.487Z,96.00
2017-08-16T05:30:12.378Z,95.80
2017-08-16T05:32:43.009Z,95.70
2017-08-16T05:35:18.584Z,95.10
2017-08-16T05:37:50.648Z,95.10
2017-08-16T05:40:21.196Z,94.90
2017-08-16T05:42:56.823Z,95.10
2017-08-16T05:45:27.866Z,94.60
2017-08-16T05:47:56.654Z,94.50
2017-08-16T05:50:28.764Z,95.00
2017-08-16T05:53:00.984Z,95.50
2017-08-16T05:55:33.064Z,95.40
2017-08-16T05:58:05.280Z,95.20
2017-08-16T06:00:35.957Z,94.90
2017-08-16T06:03:12.121Z,95.00
2017-08-16T06:05:51.764Z,95.10
2017-08-16T06:08:25.569Z,95.00
2017-08-16T06:10:55.231Z,94.90
2017-08-16T06:13:24.512Z,94.80
2017-08-16T06:15:54.113Z,94.20
2017-08-16T06:18:24.057Z,94.00
2017-08-16T06:20:55.687Z,93.60
2017-08-16T06:23:26.108Z,93.50
2017-08-16T06:25:54.456Z,93.70
2017-08-16T06:28:26.136Z,93.40
2017-08-16T06:31:00.413Z,93.60
2017-08-16T06:33:32.602Z,92.90
2017-08-16T06:36:00.217Z,93.00
2017-08-16T06:38:30.957Z,91.80
2017-08-16T06:41:02.923Z,92.40
2017-08-16T06:43:34.424Z,92.30
2017-08-16T06:46:03.671Z,92.30
2017-08-16T06:48:34.362Z,91.40
2017-08-16T06:51:05.080Z,91.40
2017-08-16T06:53:34.585Z,91.10
2017-08-16T06:56:05.392Z,90.40
2017-08-16T06:58:33.660Z,90.40
2017-08-16T07:01:03.481Z,90.10
2017-08-16T07:03:35.127Z,90.10
2017-08-16T07:06:06.414Z,90.50
2017-08-16T07:08:37.410Z,90.00
2017-08-16T07:11:08.048Z,90.30
2017-08-16T07:13:39.351Z,89.10
2017-08-16T07:16:13.001Z,89.90
2017-08-16T07:18:48.848Z,90.10
2017-08-16T07:21:17.505Z,90.40
2017-08-16T07:23:50.822Z,89.80
2017-08-16T07:26:20.226Z,89.00
2017-08-16T07:28:50.651Z,87.90
2017-08-16T07:31:18.974Z,88.00
2017-08-16T07:33:50.340Z,88.60
2017-08-16T07:36:20.061Z,87.00
2017-08-16T07:38:50.403Z,89.10
2017-08-16T07:41:19.397Z,87.10
2017-08-16T07:43:51.091Z,87.10
2017-08-16T07:46:23.085Z,86.20
2017-08-16T07:48:52.149Z,84.80
2017-08-16T07:51:24.892Z,85.10
2017-08-16T07:53:57.823Z,85.80
2017-08-16T07:56:30.158Z,87.20
2017-08-16T07:59:01.007Z,85.40
2017-08-16T08:01:31.850Z,84.20
2017-08-16T08:03:59.503Z,84.20
2017-08-16T08:06:30.132Z,83.80
2017-08-16T08:08:59.022Z,84.30
2017-08-16T08:11:30.787Z,82.50
2017-08-16T08:14:00.925Z,82.90
2017-08-16T08:16:32.140Z,82.90
2017-08-16T08:19:00.845Z,84.00
2017-08-16T08:21:32.098Z,83.70
2017-08-16T08:24:00.401Z,84.70
2017-08-16T08:26:35.578Z,86.00
2017-08-16T08:29:05.581Z,86.50
2017-08-16T08:31:35.336Z,87.30
2017-08-16T08:34:05.536Z,85.10
2017-08-16T08:36:37.088Z,85.30
2017-08-16T08:39:08.433Z,85.10
2017-08-16T08:41:38.246Z,83.80
2017-08-16T08:44:09.813Z,82.70
2017-08-16T08:46:37.460Z,84.00
2017-08-16T08:49:08.632Z,81.50
2017-08-16T08:51:37.493Z,81.40
2017-08-16T08:54:07.611Z,80.10
2017-08-16T08:56:41.629Z,80.20
2017-08-16T08:59:14.913Z,77.80
2017-08-16T09:01:42.539Z,77.20
2017-08-16T09:04:13.207Z,78.70
2017-08-16T09:09:20.917Z,78.90
2017-08-16T09:11:51.280Z,77.80
2017-08-16T09:14:24.006Z,77.90
2017-08-16T09:16:55.444Z,79.70
2017-08-16T09:19:23.128Z,78.10
2017-08-16T09:21:52.694Z,79.50
2017-08-16T09:24:23.009Z,77.60
2017-08-16T09:26:52.300Z,77.50
2017-08-16T09:29:22.932Z,81.90
2017-08-16T09:31:51.570Z,81.80
2017-08-16T09:34:20.952Z,76.70
2017-08-16T09:36:49.397Z,78.60
2017-08-16T09:39:20.128Z,74.30
2017-08-16T09:41:49.634Z,73.90
2017-08-16T09:44:19.960Z,75.70
2017-08-16T09:46:53.587Z,76.10
2017-08-16T09:49:23.172Z,75.50
2017-08-16T09:51:50.826Z,75.40
2017-08-16T09:54:20.876Z,74.50
2017-08-16T09:56:49.884Z,72.10
2017-08-16T09:59:17.498Z,72.00
2017-08-16T10:01:45.916Z,68.90
2017-08-16T10:04:17.466Z,68.20
2017-08-16T10:06:48.015Z,68.50
2017-08-16T10:09:20.622Z,68.60
2017-08-16T10:12:00.379Z,68.50
2017-08-16T10:14:33.007Z,68.90
2017-08-16T10:17:09.989Z,70.10
2017-08-16T10:19:39.797Z,70.20
2017-08-16T10:22:09.926Z,68.00
2017-08-16T10:24:40.082Z,66.90
2017-08-16T10:27:15.063Z,64.40
2017-08-16T10:29:48.000Z,64.80
2017-08-16T10:32:23.494Z,66.20
2017-08-16T10:34:57.121Z,66.40
2017-08-16T10:37:29.310Z,65.20
2017-08-16T10:40:02.769Z,64.10
2017-08-16T10:42:36.382Z,66.30
2017-08-16T10:45:08.062Z,63.00
2017-08-16T10:47:38.656Z,62.30
2017-08-16T10:50:09.910Z,59.40
2017-08-16T10:52:39.513Z,57.10
2017-08-16T10:55:07.814Z,57.30
2017-08-16T10:57:43.895Z,58.70
2017-08-16T11:00:14.811Z,58.40
2017-08-16T11:02:44.421Z,58.30
2017-08-16T11:05:17.142Z,58.40
2017-08-16T11:07:50.184Z,58.60
2017-08-16T11:10:19.324Z,59.00
2017-08-16T11:12:50.135Z,57.90
2017-08-16T11:15:22.567Z,56.30
2017-08-16T11:17:51.563Z,56.30
2017-08-16T11:20:22.598Z,56.70
2017-08-16T11:22:58.554Z,55.80
2017-08-16T11:25:30.431Z,56.60
2017-08-16T11:27:59.307Z,56.80
2017-08-16T11:30:30.143Z,56.40
2017-08-16T11:32:59.437Z,56.40
2017-08-16T11:35:28.887Z,55.80
2017-08-16T11:37:57.648Z,54.80
2017-08-16T11:40:28.369Z,54.60
2017-08-16T11:42:57.706Z,54.10
2017-08-16T11:45:28.035Z,56.80
2017-08-16T11:47:59.071Z,57.90
2017-08-16T11:50:30.505Z,58.50
2017-08-16T11:52:59.190Z,58.40
2017-08-16T11:55:28.285Z,57.60
2017-08-16T11:57:58.236Z,56.60
2017-08-16T12:00:25.993Z,53.60
2017-08-16T12:02:58.363Z,54.90
2017-08-16T12:05:30.327Z,56.50
2017-08-16T12:08:05.792Z,56.50
2017-08-16T12:10:37.995Z,56.60
2017-08-16T12:13:10.392Z,55.10
2017-08-16T12:15:42.011Z,52.50
2017-08-16T12:18:12.654Z,52.40
2017-08-16T12:20:49.763Z,55.80
2017-08-16T12:23:23.569Z,52.30
2017-08-16T12:25:56.101Z,53.30
2017-08-16T12:28:32.150Z,53.30
2017-08-16T12:31:02.733Z,52.30
2017-08-16T12:33:32.330Z,54.10
2017-08-16T12:36:07.714Z,48.50
2017-08-16T12:38:38.981Z,48.50
2017-08-16T12:41:11.888Z,51.20
2017-08-16T12:43:44.088Z,51.30
2017-08-16T12:46:13.328Z,46.80
2017-08-16T12:48:43.733Z,48.20
2017-08-16T12:51:14.947Z,49.10
2017-08-16T12:53:48.211Z,50.20
2017-08-16T12:56:19.641Z,50.10
2017-08-16T12:58:51.030Z,47.50
2017-08-16T13:01:26.478Z,49.90
2017-08-16T13:03:58.526Z,49.30
2017-08-16T13:06:33.766Z,50.20
2017-08-16T13:09:06.752Z,46.90
2017-08-16T13:11:43.826Z,48.10
2017-08-16T13:14:15.349Z,47.60
2017-08-16T13:16:48.376Z,43.90
2017-08-16T13:19:22.193Z,46.10
2017-08-16T13:21:52.814Z,45.50
2017-08-16T13:24:24.524Z,42.60
2017-08-16T13:26:59.418Z,42.70
2017-08-16T13:29:31.667Z,43.00
2017-08-16T13:32:02.202Z,43.50
2017-08-16T13:34:32.729Z,41.00
2017-08-16T13:37:21.585Z,43.40
2017-08-16T13:39:52.824Z,41.50
2017-08-16T13:42:22.543Z,41.50
2017-08-16T13:44:52.029Z,43.20
2017-08-16T13:47:20.931Z,42.10
2017-08-16T13:49:51.304Z,45.20
2017-08-16T13:52:21.108Z,45.20
2017-08-16T13:54:54.255Z,43.90
2017-08-16T13:57:24.940Z,45.40
2017-08-16T13:59:56.399Z,45.30
2017-08-16T14:02:28.194Z,43.30
2017-08-16T14:04:58.443Z,42.30
2017-08-16T14:07:28.926Z,42.20
2017-08-16T14:10:00.292Z,44.60
2017-08-16T14:12:30.870Z,43.10
2017-08-16T14:14:59.627Z,41.40
2017-08-16T14:17:37.571Z,43.00
2017-08-16T14:20:09.006Z,42.40
2017-08-16T14:22:41.977Z,41.50
2017-08-16T14:25:11.723Z,41.00
2017-08-16T14:27:42.428Z,40.30
2017-08-16T14:30:12.062Z,42.00
2017-08-16T14:32:45.227Z,38.80
2017-08-16T14:35:13.808Z,40.20
2017-08-16T14:37:46.261Z,40.00
2017-08-16T14:40:19.517Z,40.70
2017-08-16T14:42:51.161Z,38.90
2017-08-16T14:45:24.681Z,36.40
2017-08-16T14:47:58.074Z,34.10
2017-08-16T14:50:27.987Z,32.40
2017-08-16T14:53:00.257Z,32.60
2017-08-16T14:55:29.180Z,29.30
2017-08-16T14:58:01.108Z,27.10
2017-08-16T15:00:31.640Z,26.50
2017-08-16T15:03:02.873Z,22.90
2017-08-16T15:05:32.448Z,22.70
2017-08-16T15:08:09.461Z,21.60
2017-08-16T15:10:44.001Z,21.70
2017-08-16T15:13:16.807Z,21.60
2017-08-16T15:15:47.322Z,21.20
2017-08-16T15:18:17.937Z,21.40
2017-08-16T15:20:46.809Z,21.30
2017-08-16T15:23:16.311Z,21.00
2017-08-16T15:25:48.732Z,21.00
2017-08-16T15:28:19.935Z,21.10
2017-08-16T15:30:51.069Z,21.70
2017-08-16T15:33:23.031Z,23.30
2017-08-16T15:35:52.022Z,24.60
2017-08-16T15:38:24.598Z,27.80
2017-08-16T15:40:54.740Z,30.10
2017-08-16T15:43:28.634Z,33.40
2017-08-16T15:45:59.412Z,33.40
2017-08-16T15:48:33.209Z,35.70
2017-08-16T15:51:07.374Z,34.30
2017-08-16T15:53:38.721Z,30.00
2017-08-16T15:56:12.152Z,27.60
2017-08-16T15:58:45.253Z,25.10
2017-08-16T16:01:16.400Z,24.20
2017-08-16T16:03:48.053Z,22.20
2017-08-16T16:06:19.143Z,22.40
2017-08-16T16:08:52.067Z,21.30
2017-08-16T16:11:23.640Z,21.30
2017-08-16T16:13:52.923Z,21.30
2017-08-16T16:16:27.445Z,21.80
2017-08-16T16:18:59.666Z,21.90
2017-08-16T16:21:28.424Z,22.40
2017-08-16T16:24:02.771Z,24.90
2017-08-16T16:26:40.721Z,27.30
2017-08-16T16:29:15.879Z,29.20
2017-08-16T16:31:48.432Z,32.10
2017-08-16T16:34:23.877Z,35.30
2017-08-16T16:36:55.870Z,36.80
2017-08-16T16:39:28.154Z,37.80
2017-08-16T16:42:01.822Z,40.30
2017-08-16T16:44:32.233Z,40.80
2017-08-16T16:47:12.509Z,42.30
2017-08-16T16:49:46.124Z,43.20
2017-08-16T16:52:16.533Z,44.00
2017-08-16T16:54:48.396Z,43.80
2017-08-16T16:57:19.511Z,45.00
2017-08-16T16:59:52.660Z,44.40
2017-08-16T17:02:24.257Z,45.80
2017-08-16T17:05:05.360Z,45.30
2017-08-16T17:07:34.629Z,46.10
2017-08-16T17:10:06.029Z,46.80
2017-08-16T17:12:36.710Z,46.30
2017-08-16T17:15:07.646Z,47.50
2017-08-16T17:17:38.220Z,48.00
2017-08-16T17:20:11.365Z,47.90
2017-08-16T17:22:44.091Z,48.90
2017-08-16T17:25:15.469Z,48.90
2017-08-16T17:27:44.344Z,49.00
2017-08-16T17:30:13.524Z,50.50
2017-08-16T17:32:43.493Z,50.60
2017-08-16T17:35:14.325Z,51.10
2017-08-16T17:37:46.368Z,51.40
2017-08-16T17:40:16.377Z,51.30
2017-08-16T17:42:48.322Z,51.30
2017-08-16T17:45:19.668Z,52.00
2017-08-16T17:47:50.687Z,52.70
2017-08-16T17:50:21.845Z,53.30
2017-08-16T17:52:53.286Z,53.50
2017-08-16T17:55:26.690Z,54.30
2017-08-16T17:58:04.120Z,54.20
2017-08-16T18:00:34.842Z,55.40
2017-08-16T18:03:07.082Z,55.40
2017-08-16T18:05:38.544Z,56.10
2017-08-16T18:08:08.744Z,56.10
2017-08-16T18:10:39.072Z,56.50
2017-08-16T18:13:09.907Z,56.90
2017-08-16T18:15:39.121Z,57.20
2017-08-16T18:18:08.042Z,57.70
2017-08-16T18:20:40.262Z,57.60
2017-08-16T18:23:13.039Z,58.00
2017-08-16T18:25:46.948Z,58.60
2017-08-16T18:28:18.674Z,59.90
2017-08-16T18:30:47.541Z,59.60
2017-08-16T18:33:17.101Z,59.90
2017-08-16T18:35:46.913Z,60.00
2017-08-16T18:38:15.668Z,60.20
2017-08-16T18:40:47.906Z,60.60
2017-08-16T18:43:18.513Z,60.60
2017-08-16T18:45:49.935Z,60.00
2017-08-16T18:48:21.690Z,60.80
2017-08-16T18:50:53.169Z,60.70
2017-08-16T18:53:24.599Z,61.00
2017-08-16T18:55:55.068Z,61.10
2017-08-16T18:58:27.803Z,61.20
2017-08-16T19:01:02.586Z,61.40
2017-08-16T19:03:33.254Z,62.20
2017-08-16T19:06:05.383Z,62.60
2017-08-16T19:08:37.134Z,62.20
2017-08-16T19:11:08.119Z,62.50
2017-08-16T19:13:39.630Z,63.10
2017-08-16T19:16:11.813Z,62.70
2017-08-16T19:18:42.652Z,63.40
2017-08-16T19:21:17.470Z,64.60
2017-08-16T19:23:50.610Z,64.40
2017-08-16T19:26:20.850Z,64.40
2017-08-16T19:28:51.703Z,65.10
2017-08-16T19:31:23.302Z,65.40
2017-08-16T19:33:57.805Z,65.40
2017-08-16T19:36:29.454Z,65.20
2017-08-16T19:38:58.160Z,65.60
2017-08-16T19:41:28.400Z,66.40
2017-08-16T19:43:59.508Z,66.60
2017-08-16T19:46:30.448Z,67.10
2017-08-16T19:49:00.358Z,67.00
2017-08-16T19:51:29.761Z,68.20
2017-08-16T19:54:03.877Z,67.40
2017-08-16T19:56:35.736Z,67.80
2017-08-16T19:59:08.824Z,67.90
2017-08-16T20:01:41.894Z,67.60
2017-08-16T20:04:15.313Z,68.30
2017-08-16T20:06:45.244Z,68.20
2017-08-16T20:09:15.756Z,68.50
2017-08-16T20:11:47.257Z,68.30
2017-08-16T20:14:20.703Z,68.70
2017-08-16T20:16:50.562Z,69.60
2017-08-16T20:19:26.186Z,69.50
2017-08-16T20:21:56.845Z,69.40
2017-08-16T20:24:28.733Z,70.30
2017-08-16T20:27:00.246Z,70.30
2017-08-16T20:29:31.558Z,70.60
2017-08-16T20:32:02.486Z,70.20
2017-08-16T20:34:32.520Z,70.80
2017-08-16T20:37:00.997Z,70.70
2017-08-16T20:39:29.716Z,71.50
2017-08-16T20:42:02.191Z,70.70
2017-08-16T20:44:32.462Z,70.60
2017-08-16T20:47:02.665Z,70.30
2017-08-16T20:49:33.795Z,70.80
2017-08-16T20:52:02.490Z,70.80
2017-08-16T20:54:32.590Z,71.80
2017-08-16T20:57:03.269Z,71.80
2017-08-16T20:59:33.095Z,71.80
2017-08-16T21:02:02.828Z,72.00
2017-08-16T21:04:32.741Z,72.10
2017-08-16T21:07:02.132Z,72.30
2017-08-16T21:09:35.975Z,72.70
2017-08-16T21:12:08.151Z,72.70
2017-08-16T21:14:39.510Z,73.10
2017-08-16T21:17:14.217Z,73.60
2017-08-16T21:19:44.647Z,73.50
2017-08-16T21:22:14.503Z,74.10
2017-08-16T21:24:47.543Z,74.10
2017-08-16T21:27:20.956Z,74.00
2017-08-16T21:29:52.555Z,74.70
2017-08-16T21:32:23.738Z,74.60
2017-08-16T21:34:56.533Z,74.90
2017-08-16T21:37:32.139Z,74.60
2017-08-16T21:40:03.077Z,74.60
2017-08-16T21:42:35.478Z,74.60
2017-08-16T21:45:06.005Z,75.20
2017-08-16T21:47:39.377Z,76.10
2017-08-16T21:50:09.643Z,75.00
2017-08-16T21:52:43.252Z,75.10
2017-08-16T21:55:18.224Z,75.50
2017-08-16T21:57:50.129Z,75.80
2017-08-16T22:00:21.846Z,76.30
2017-08-16T22:03:01.144Z,76.30
2017-08-16T22:05:31.979Z,76.20
2017-08-16T22:08:04.759Z,76.40
2017-08-16T22:10:34.773Z,77.20
2017-08-16T22:13:08.094Z,77.20
2017-08-16T22:15:39.188Z,77.30
2017-08-16T22:18:09.827Z,77.00
2017-08-16T22:20:38.815Z,77.00
2017-08-16T22:23:10.059Z,77.60
2017-08-16T22:25:39.239Z,77.80
2017-08-16T22:28:09.392Z,78.30
2017-08-16T22:30:41.211Z,78.20
2017-08-16T22:33:13.927Z,78.10
2017-08-16T22:35:47.989Z,78.60
2017-08-16T22:38:16.456Z,78.80
2017-08-16T22:40:46.710Z,78.90
2017-08-16T22:43:17.417Z,78.90
2017-08-16T22:45:51.418Z,78.90
2017-08-16T22:48:25.202Z,79.40
2017-08-16T22:50:57.658Z,79.90
2017-08-16T22:53:29.314Z,80.00
2017-08-16T22:55:57.914Z,79.70
2017-08-16T22:58:31.462Z,79.90
2017-08-16T23:01:02.612Z,79.90
2017-08-16T23:03:34.127Z,80.20
2017-08-16T23:06:06.926Z,80.20
2017-08-16T23:08:38.812Z,80.40
2017-08-16T23:11:11.216Z,80.50
2017-08-16T23:13:43.721Z,80.50
2017-08-16T23:16:13.809Z,80.50
2017-08-16T23:18:43.355Z,80.40
2017-08-16T23:21:14.536Z,80.20
2017-08-16T23:23:45.993Z,80.40
2017-08-16T23:26:16.273Z,81.00
2017-08-16T23:28:48.434Z,81.50
2017-08-16T23:31:22.172Z,80.70
2017-08-16T23:33:52.147Z,81.60
2017-08-16T23:36:22.584Z,81.60
2017-08-16T23:38:54.753Z,81.50
2017-08-16T23:41:22.414Z,81.30
2017-08-16T23:43:52.884Z,81.40
2017-08-16T23:46:23.676Z,81.00
2017-08-16T23:48:54.192Z,80.70
2017-08-16T23:51:23.400Z,80.90
2017-08-16T23:53:53.650Z,80.90
2017-08-16T23:56:24.390Z,80.90
2017-08-16T23:58:53.038Z,80.80
